LDSP Airport Information

Runway Information
Runway 05 Length 8366 ft width 148 ft
Elevation 70 ft Threshold 0 ft Heading 53
Runway 23 Length 8366 ft Width 148 ft
Elevation 50 ft Threshold 525 ft Heading 233
Airport Frequencies
Type APP Name APP Frequency 120.875 MHZ
Type INFO Name INFO Frequency 128.675 MHZ
Type TWR Name TWR Frequency 124.675 MHZ
Airport Navaids
Type NDB Name Drvenik Frequency 418 KHZ
Type VOR-DME Name Split Frequency 115700 KHZ
Type NDB Name Trogir Frequency 378 KHZ
Airport Weather Information & NOTAM
ADDS - METARS form results

(0120 UTC 27 July 2021)
Data provider http://aviationweather.gov/metar/data/
 
METAR text: LDSP 270100Z AUTO 06003KT CAVOK 25/13 Q1016
Conditions at: LDSP (SPLIT/KASTEL STA, HR) observed 0100 UTC 27 July 2021
Temperature: 25.0°C (77°F)
Dewpoint: 13.0°C (55°F) [RH = 47%]
Pressure (altimeter): 30.00 inches Hg (1016.0 mb)
Winds: from the ENE (60 degrees) at 3 MPH (3 knots; 1.5 m/s)
Visibility: 6 or more miles (10+ km)
Ceiling: ceiling and visibility are OK
Clouds: unknown
Weather: no significant weather observed at this time

METAR text: LDSP 270030Z AUTO 01003KT 350V100 CAVOK 26/13 Q1016
Conditions at: LDSP (SPLIT/KASTEL STA, HR) observed 0030 UTC 27 July 2021
Temperature: 26.0°C (79°F)
Dewpoint: 13.0°C (55°F) [RH = 45%]
Pressure (altimeter): 30.00 inches Hg (1016.0 mb)
Winds: from the N (10 degrees) at 3 MPH (3 knots; 1.5 m/s)
Visibility: 6 or more miles (10+ km)
Ceiling: ceiling and visibility are OK
Clouds: unknown
Weather: no significant weather observed at this time

Forecast for: LDSP (SPLIT/KASTEL STA, HR)
Text: TAF LDSP 262325Z 2700/2800 11005KT CAVOK TX33/2712Z TN27/2703Z
Forecast period: 0000 UTC 27 July 2021 to 0000 UTC 28 July 2021
Forecast type: FROM: standard forecast or significant change
Winds: from the ESE (110 degrees) at 6 MPH (5 knots; 2.6 m/s)
Visibility: 6 or more miles (10+ km)
Ceiling: unknown
Clouds: missing
Weather: no significant weather forecast for this period
Text: PROB30
Forecast period: 1000 to 1500 UTC 27 July 2021
Forecast type: TEMPORARY: The following changes expected for less than half the time period
Winds: from the SW (230 degrees) at 10 MPH (9 knots; 4.6 m/s)
Visibility: missing
Ceiling: unknown
Clouds: missing
Weather: no significant weather forecast for this period